Time,TemperatureF,DewpointF,PressureIn,WindDirection,WindDirectionDegrees,WindSpeedMPH,WindSpeedGustMPH,Humidity,HourlyPrecipIn,Conditions,Clouds,dailyrainin,SoftwareType,DateUTC
2013-07-28 00:12:00,67.4,64.0,29.95,NNE,33,2.0,3.0,87,0.00,,,0.00,weatherlink.com 1.10,2013-07-28 04:12:00,
2013-07-28 00:28:00,67.5,63.0,29.95,North,360,0.0,7.0,86,0.00,,,0.00,weatherlink.com 1.10,2013-07-28 04:28:00,
2013-07-28 00:43:00,67.8,64.0,29.95,East,79,0.0,1.0,86,0.00,,,0.00,weatherlink.com 1.10,2013-07-28 04:43:00,
2013-07-28 00:58:00,67.9,64.0,29.95,North,9,0.0,1.0,86,0.00,,,0.00,weatherlink.com 1.10,2013-07-28 04:58:00,
2013-07-28 01:13:00,67.4,63.0,29.95,North,9,0.0,0.0,86,0.00,,,0.00,weatherlink.com 1.10,2013-07-28 05:13:00,
2013-07-28 01:28:00,67.3,63.0,29.95,ESE,108,0.0,3.0,86,0.00,,,0.00,weatherlink.com 1.10,2013-07-28 05:28:00,
2013-07-28 01:43:00,67.3,63.0,29.95,SSE,157,0.0,3.0,87,0.00,,,0.00,weatherlink.com 1.10,2013-07-28 05:43:00,
2013-07-28 01:58:00,67.0,63.0,29.95,SSE,165,0.0,4.0,87,0.00,,,0.00,weatherlink.com 1.10,2013-07-28 05:58:00,
2013-07-28 02:13:00,66.9,63.0,29.95,SSE,159,0.0,2.0,88,0.00,,,0.00,weatherlink.com 1.10,2013-07-28 06:13:00,
2013-07-28 02:28:00,66.7,63.0,29.95,South,186,0.0,3.0,89,0.00,,,0.00,weatherlink.com 1.10,2013-07-28 06:28:00,
2013-07-28 02:43:00,66.3,63.0,29.94,South,186,0.0,1.0,89,0.00,,,0.00,weatherlink.com 1.10,2013-07-28 06:43:00,
2013-07-28 02:58:00,66.0,63.0,29.95,South,186,0.0,2.0,90,0.00,,,0.00,weatherlink.com 1.10,2013-07-28 06:58:00,
2013-07-28 03:13:00,65.8,63.0,29.94,SSW,202,0.0,4.0,90,0.00,,,0.00,weatherlink.com 1.10,2013-07-28 07:13:00,
2013-07-28 03:29:00,66.1,63.0,29.93,SSW,196,0.0,8.0,90,0.00,,,0.00,weatherlink.com 1.10,2013-07-28 07:29:00,
2013-07-28 03:43:00,66.2,63.0,29.94,SSW,205,0.0,5.0,89,0.00,,,0.00,weatherlink.com 1.10,2013-07-28 07:43:00,
2013-07-28 03:58:00,66.2,63.0,29.95,SSW,205,0.0,1.0,90,0.00,,,0.00,weatherlink.com 1.10,2013-07-28 07:58:00,
2013-07-28 04:13:00,65.8,63.0,29.94,SSW,205,0.0,0.0,90,0.00,,,0.00,weatherlink.com 1.10,2013-07-28 08:13:00,
2013-07-28 04:28:00,65.6,63.0,29.94,SSW,205,0.0,0.0,91,0.00,,,0.00,weatherlink.com 1.10,2013-07-28 08:28:00,
2013-07-28 04:43:00,65.3,63.0,29.94,SSW,205,0.0,1.0,91,0.00,,,0.00,weatherlink.com 1.10,2013-07-28 08:43:00,
2013-07-28 04:58:00,65.2,63.0,29.94,SSW,205,0.0,0.0,92,0.00,,,0.00,weatherlink.com 1.10,2013-07-28 08:58:00,
2013-07-28 05:13:00,64.9,63.0,29.95,SSW,205,0.0,0.0,92,0.00,,,0.00,weatherlink.com 1.10,2013-07-28 09:13:00,
2013-07-28 05:28:00,64.7,63.0,29.94,SSW,205,0.0,0.0,93,0.00,,,0.00,weatherlink.com 1.10,2013-07-28 09:28:00,
2013-07-28 05:43:00,64.7,63.0,29.95,SSW,205,0.0,0.0,93,0.00,,,0.00,weatherlink.com 1.10,2013-07-28 09:43:00,
2013-07-28 05:58:00,64.6,63.0,29.94,SSW,205,0.0,2.0,94,0.00,,,0.00,weatherlink.com 1.10,2013-07-28 09:58:00,
2013-07-28 06:13:00,64.5,63.0,29.95,SSW,205,0.0,0.0,94,0.00,,,0.00,weatherlink.com 1.10,2013-07-28 10:13:00,
2013-07-28 06:28:00,64.5,63.0,29.96,SSW,205,0.0,0.0,94,0.00,,,0.00,weatherlink.com 1.10,2013-07-28 10:28:00,
2013-07-28 06:43:00,64.5,63.0,29.96,SSW,205,0.0,0.0,94,0.00,,,0.00,weatherlink.com 1.10,2013-07-28 10:43:00,
2013-07-28 06:58:00,64.5,63.0,29.97,SSW,205,0.0,0.0,95,0.00,,,0.00,weatherlink.com 1.10,2013-07-28 10:58:00,
2013-07-28 07:13:00,64.5,63.0,29.97,SSW,205,0.0,0.0,96,0.03,,,0.03,weatherlink.com 1.10,2013-07-28 11:13:00,
2013-07-28 07:28:00,64.6,64.0,29.97,SSW,205,0.0,0.0,97,0.06,,,0.06,weatherlink.com 1.10,2013-07-28 11:28:00,
2013-07-28 07:43:00,64.7,64.0,29.98,SSW,205,0.0,0.0,97,0.07,,,0.07,weatherlink.com 1.10,2013-07-28 11:43:00,
2013-07-28 07:58:00,64.9,64.0,29.98,SSW,205,0.0,0.0,97,0.09,,,0.09,weatherlink.com 1.10,2013-07-28 11:58:00,
2013-07-28 08:13:00,64.8,64.0,29.98,SSW,205,0.0,0.0,97,0.13,,,0.16,weatherlink.com 1.10,2013-07-28 12:13:00,
2013-07-28 08:28:00,64.8,64.0,29.98,SSW,205,0.0,0.0,98,0.17,,,0.23,weatherlink.com 1.10,2013-07-28 12:28:00,
2013-07-28 08:43:00,64.9,64.0,29.98,SE,140,0.0,3.0,98,0.17,,,0.24,weatherlink.com 1.10,2013-07-28 12:43:00,
2013-07-28 08:58:00,64.8,64.0,29.98,South,179,0.0,2.0,98,0.15,,,0.25,weatherlink.com 1.10,2013-07-28 12:58:00,
2013-07-28 09:13:00,65.0,65.0,29.97,East,81,0.0,1.0,98,0.10,,,0.26,weatherlink.com 1.10,2013-07-28 13:13:00,
2013-07-28 09:28:00,65.4,65.0,29.96,SSW,196,0.0,3.0,98,0.03,,,0.26,weatherlink.com 1.10,2013-07-28 13:28:00,
2013-07-28 09:43:00,65.6,65.0,29.96,SSW,196,0.0,3.0,98,0.03,,,0.27,weatherlink.com 1.10,2013-07-28 13:43:00,
2013-07-28 09:58:00,65.8,65.0,29.96,SSW,196,0.0,3.0,98,0.02,,,0.27,weatherlink.com 1.10,2013-07-28 13:58:00,
2013-07-28 10:13:00,66.2,66.0,29.96,SSW,197,0.0,5.0,98,0.01,,,0.27,weatherlink.com 1.10,2013-07-28 14:13:00,
2013-07-28 10:28:00,66.4,66.0,29.96,SSW,193,1.0,5.0,98,0.01,,,0.27,weatherlink.com 1.10,2013-07-28 14:28:00,
2013-07-28 10:43:00,66.6,66.0,29.95,South,185,0.0,8.0,98,0.00,,,0.27,weatherlink.com 1.10,2013-07-28 14:43:00,
2013-07-28 10:58:00,67.0,66.0,29.95,NNE,27,0.0,3.0,97,0.00,,,0.27,weatherlink.com 1.10,2013-07-28 14:58:00,
2013-07-28 11:13:00,67.4,67.0,29.95,South,180,0.0,6.0,97,0.00,,,0.27,weatherlink.com 1.10,2013-07-28 15:13:00,
2013-07-28 11:28:00,67.3,66.0,29.95,SSW,204,0.0,7.0,96,0.00,,,0.27,weatherlink.com 1.10,2013-07-28 15:28:00,
2013-07-28 11:43:00,67.0,66.0,29.95,SSW,209,2.0,9.0,96,0.01,,,0.28,weatherlink.com 1.10,2013-07-28 15:43:00,
2013-07-28 11:58:00,66.8,66.0,29.94,SE,141,3.0,8.0,96,0.01,,,0.28,weatherlink.com 1.10,2013-07-28 15:58:00,
2013-07-28 12:13:00,66.9,66.0,29.94,South,188,0.0,7.0,97,0.01,,,0.28,weatherlink.com 1.10,2013-07-28 16:13:00,
2013-07-28 12:28:00,67.0,66.0,29.94,SW,230,0.0,10.0,96,0.01,,,0.28,weatherlink.com 1.10,2013-07-28 16:28:00,
2013-07-28 12:43:00,67.4,67.0,29.94,South,186,3.0,10.0,97,0.00,,,0.28,weatherlink.com 1.10,2013-07-28 16:43:00,
2013-07-28 12:58:00,67.7,67.0,29.94,ESE,122,4.0,11.0,96,0.00,,,0.28,weatherlink.com 1.10,2013-07-28 16:58:00,
2013-07-28 13:13:00,67.4,66.0,29.94,SSE,157,2.0,10.0,96,0.00,,,0.28,weatherlink.com 1.10,2013-07-28 17:13:00,
2013-07-28 13:28:00,67.0,66.0,29.94,ESE,111,2.0,8.0,96,0.00,,,0.28,weatherlink.com 1.10,2013-07-28 17:28:00,
2013-07-28 13:43:00,66.7,66.0,29.94,WSW,253,3.0,5.0,96,0.00,,,0.28,weatherlink.com 1.10,2013-07-28 17:43:00,
2013-07-28 13:58:00,67.1,66.0,29.94,South,188,0.0,4.0,97,0.00,,,0.28,weatherlink.com 1.10,2013-07-28 17:58:00,
2013-07-28 14:13:00,67.9,67.0,29.94,South,169,0.0,7.0,96,0.00,,,0.28,weatherlink.com 1.10,2013-07-28 18:13:00,
2013-07-28 14:29:00,68.5,67.0,29.93,South,179,0.0,5.0,96,0.00,,,0.28,weatherlink.com 1.10,2013-07-28 18:29:00,
2013-07-28 14:44:00,69.6,68.0,29.93,South,173,0.0,5.0,94,0.00,,,0.28,weatherlink.com 1.10,2013-07-28 18:44:00,
2013-07-28 14:59:00,69.9,68.0,29.93,NE,42,0.0,3.0,94,0.00,,,0.28,weatherlink.com 1.10,2013-07-28 18:59:00,
2013-07-28 15:14:00,69.8,68.0,29.93,East,84,0.0,2.0,93,0.00,,,0.28,weatherlink.com 1.10,2013-07-28 19:14:00,
2013-07-28 15:29:00,70.2,68.0,29.93,ENE,59,0.0,2.0,93,0.00,,,0.28,weatherlink.com 1.10,2013-07-28 19:29:00,
2013-07-28 15:44:00,70.8,69.0,29.93,ENE,67,0.0,2.0,93,0.00,,,0.28,weatherlink.com 1.10,2013-07-28 19:44:00,
2013-07-28 15:59:00,71.5,69.0,29.93,East,99,0.0,1.0,93,0.00,,,0.28,weatherlink.com 1.10,2013-07-28 19:59:00,
2013-07-28 16:14:00,73.5,71.0,29.92,NE,41,0.0,4.0,91,0.00,,,0.28,weatherlink.com 1.10,2013-07-28 20:14:00,
2013-07-28 16:29:00,74.8,71.0,29.92,East,101,0.0,6.0,87,0.00,,,0.28,weatherlink.com 1.10,2013-07-28 20:29:00,
2013-07-28 16:44:00,74.3,71.0,29.92,South,181,0.0,2.0,88,0.00,,,0.28,weatherlink.com 1.10,2013-07-28 20:44:00,
2013-07-28 16:59:00,74.3,70.0,29.92,South,188,1.0,4.0,87,0.00,,,0.28,weatherlink.com 1.10,2013-07-28 20:59:00,
2013-07-28 17:14:00,74.2,71.0,29.91,SSW,203,0.0,2.0,88,0.00,,,0.28,weatherlink.com 1.10,2013-07-28 21:14:00,
2013-07-28 17:29:00,73.5,70.0,29.92,South,175,2.0,4.0,88,0.00,,,0.28,weatherlink.com 1.10,2013-07-28 21:29:00,
2013-07-28 17:44:00,73.1,69.0,29.93,SSW,193,1.0,7.0,88,0.00,,,0.28,weatherlink.com 1.10,2013-07-28 21:44:00,
2013-07-28 17:59:00,72.4,69.0,29.93,South,191,0.0,10.0,89,0.00,,,0.28,weatherlink.com 1.10,2013-07-28 21:59:00,
2013-07-28 18:14:00,71.8,69.0,29.93,SSE,158,0.0,5.0,92,0.00,,,0.28,weatherlink.com 1.10,2013-07-28 22:14:00,
2013-07-28 18:29:00,71.2,69.0,29.93,SSW,213,0.0,7.0,93,0.00,,,0.28,weatherlink.com 1.10,2013-07-28 22:29:00,
2013-07-28 18:44:00,70.8,69.0,29.93,South,185,0.0,4.0,94,0.01,,,0.29,weatherlink.com 1.10,2013-07-28 22:44:00,
2013-07-28 18:59:00,70.5,69.0,29.94,South,190,2.0,4.0,95,0.02,,,0.30,weatherlink.com 1.10,2013-07-28 22:59:00,
2013-07-28 19:14:00,70.2,69.0,29.94,SSE,153,0.0,11.0,95,0.02,,,0.30,weatherlink.com 1.10,2013-07-28 23:14:00,
2013-07-28 19:29:00,69.9,69.0,29.93,South,190,0.0,4.0,96,0.02,,,0.30,weatherlink.com 1.10,2013-07-28 23:29:00,
2013-07-28 19:44:00,69.6,69.0,29.93,SSW,192,0.0,7.0,96,0.01,,,0.30,weatherlink.com 1.10,2013-07-28 23:44:00,
2013-07-28 19:59:00,69.5,68.0,29.94,SSW,200,1.0,8.0,96,0.00,,,0.30,weatherlink.com 1.10,2013-07-28 23:59:00,
2013-07-28 20:14:00,69.2,68.0,29.93,SSW,205,0.0,5.0,96,0.00,,,0.30,weatherlink.com 1.10,2013-07-29 00:14:00,
2013-07-28 20:29:00,69.1,68.0,29.94,South,185,0.0,7.0,96,0.00,,,0.30,weatherlink.com 1.10,2013-07-29 00:29:00,
2013-07-28 20:44:00,69.0,68.0,29.94,SW,217,2.0,5.0,96,0.00,,,0.30,weatherlink.com 1.10,2013-07-29 00:44:00,
2013-07-28 20:59:00,68.8,67.0,29.94,SSE,153,0.0,3.0,95,0.00,,,0.30,weatherlink.com 1.10,2013-07-29 00:59:00,
2013-07-28 21:14:00,68.6,67.0,29.93,SE,139,1.0,2.0,95,0.00,,,0.30,weatherlink.com 1.10,2013-07-29 01:14:00,
2013-07-28 21:44:00,68.2,67.0,29.94,NNE,19,0.0,2.0,96,0.00,,,0.30,weatherlink.com 1.10,2013-07-29 01:44:00,
2013-07-28 22:14:00,68.2,67.0,29.95,WNW,282,0.0,1.0,96,0.00,,,0.30,weatherlink.com 1.10,2013-07-29 02:14:00,
2013-07-28 22:44:00,68.1,67.0,29.95,SSE,163,0.0,3.0,95,0.00,,,0.30,weatherlink.com 1.10,2013-07-29 02:44:00,
2013-07-28 22:59:00,67.7,67.0,29.96,SSE,163,0.0,0.0,96,0.00,,,0.30,weatherlink.com 1.10,2013-07-29 02:59:00,
2013-07-28 23:44:00,67.6,67.0,29.95,SSE,165,0.0,2.0,97,0.00,,,0.30,weatherlink.com 1.10,2013-07-29 03:44:00,
2013-07-28 23:59:00,67.7,67.0,29.96,South,188,0.0,2.0,97,0.00,,,0.30,weatherlink.com 1.10,2013-07-29 03:59:00,